KRKP/RKP METAR and TAF weather

Enter ICAO airport designator
Station Type Date Time Source
KRKP METAR 2020/01/20 21:53 UTC NOAA

KRKP 202153Z AUTO 09006KT 10SM CLR 18/00 A3048 RMK AO2 SLP323 T01780000


Station Type Date Time Source
KRKP Decoded METAR 2020/01/20 21:53 UTC NOAA

ROCKPORT ARANSAS COUNTY AIRPORT , TX, United States (KRKP) 28-05N 97-03W 6M
Jan 20, 2020 - 04:53 PM EST / 2020.01.20 2153 UTC
Wind: from the E (090 degrees) at 7 MPH (6 KT):0
Visibility: 10 mile(s):0
Sky conditions: clear
Temperature: 64.0 F (17.8 C)
Dew Point: 32.0 F (0.0 C)
Relative Humidity: 29%
Pressure (altimeter): 30.48 in. Hg (1032 hPa)
ob: KRKP 202153Z AUTO 09006KT 10SM CLR 18/00 A3048 RMK AO2 SLP323 T01780000
cycle: 22

Station Type Date Time Source
KRKP TAF UTC NOAA

Error!

Example: see airport list